TimeMST,TemperatureF,Dew PointF,Humidity,Sea Level PressureIn,VisibilityMPH,Wind Direction,Wind SpeedMPH,Gust SpeedMPH,PrecipitationIn,Events,Conditions,WindDirDegrees,DateUTC
12:53 AM,26.1,10.9,53,30.45,10.0,Calm,Calm,-,N/A,,Clear,0,2013-03-01 07:53:00
1:53 AM,30.0,12.0,47,30.44,10.0,Calm,Calm,-,N/A,,Partly Cloudy,0,2013-03-01 08:53:00
2:53 AM,25.0,12.0,58,30.44,10.0,SW,3.5,-,N/A,,Partly Cloudy,230,2013-03-01 09:53:00
3:53 AM,23.0,10.9,60,30.44,10.0,Calm,Calm,-,N/A,,Clear,0,2013-03-01 10:53:00
4:53 AM,26.1,14.0,60,30.44,10.0,Calm,Calm,-,N/A,,Clear,0,2013-03-01 11:53:00
5:53 AM,25.0,14.0,63,30.47,10.0,Calm,Calm,-,N/A,,Clear,0,2013-03-01 12:53:00
6:53 AM,25.0,14.0,63,30.51,10.0,Calm,Calm,-,N/A,,Clear,0,2013-03-01 13:53:00
7:53 AM,28.9,16.0,58,30.52,10.0,Calm,Calm,-,N/A,,Clear,0,2013-03-01 14:53:00
8:53 AM,36.0,16.0,44,30.53,10.0,SE,4.6,-,N/A,,Clear,140,2013-03-01 15:53:00
9:53 AM,39.9,17.1,40,30.52,10.0,SSE,3.5,-,N/A,,Clear,150,2013-03-01 16:53:00
10:53 AM,45.0,16.0,31,30.52,10.0,SSE,3.5,-,N/A,,Clear,160,2013-03-01 17:53:00
11:53 AM,46.0,16.0,30,30.50,10.0,South,4.6,-,N/A,,Clear,170,2013-03-01 18:53:00
12:53 PM,48.9,17.1,28,30.47,10.0,SSE,5.8,-,N/A,,Clear,150,2013-03-01 19:53:00
1:53 PM,51.1,18.0,27,30.43,10.0,Calm,Calm,-,N/A,,Clear,0,2013-03-01 20:53:00
2:53 PM,52.0,19.9,28,30.41,10.0,Variable,3.5,-,N/A,,Clear,0,2013-03-01 21:53:00
3:53 PM,53.1,19.0,26,30.41,10.0,Calm,Calm,-,N/A,,Clear,0,2013-03-01 22:53:00
4:53 PM,53.1,19.9,27,30.38,10.0,Calm,Calm,-,N/A,,Clear,0,2013-03-01 23:53:00
5:53 PM,51.8,19.4,28,30.37,10.0,Calm,Calm,-,N/A,,Clear,0,2013-03-02 00:53:00
6:53 PM,44.6,19.4,37,30.37,10.0,Calm,Calm,-,N/A,,Clear,0,2013-03-02 01:53:00
7:53 PM,43.0,19.9,40,30.42,10.0,Calm,Calm,-,N/A,,Clear,0,2013-03-02 02:53:00
8:53 PM,37.9,19.9,48,30.43,10.0,West,4.6,-,N/A,,Clear,270,2013-03-02 03:53:00
9:53 PM,37.9,21.9,53,30.44,10.0,West,4.6,-,N/A,,Clear,260,2013-03-02 04:53:00
10:53 PM,34.0,21.0,59,30.43,10.0,Calm,Calm,-,N/A,,Clear,0,2013-03-02 05:53:00
11:53 PM,37.0,23.0,57,30.43,10.0,Calm,Calm,-,N/A,,Clear,0,2013-03-02 06:53:00